createdAt,value
2017-12-23T00:01:39.287Z,72.38
2017-12-23T00:04:07.828Z,75.15
2017-12-23T00:06:36.202Z,74.83
2017-12-23T00:09:04.582Z,74.37
2017-12-23T00:11:32.976Z,76.14
2017-12-23T00:14:01.337Z,76.55
2017-12-23T00:18:58.091Z,71.90
2017-12-23T00:21:26.496Z,71.25
2017-12-23T00:23:54.868Z,73.03
2017-12-23T00:26:23.242Z,71.18
2017-12-23T00:28:51.676Z,72.41
2017-12-23T00:31:20.086Z,73.09
2017-12-23T00:33:48.591Z,73.23
2017-12-23T00:36:17.710Z,73.16
2017-12-23T00:38:46.309Z,74.03
2017-12-23T00:41:14.749Z,73.79
2017-12-23T00:43:43.540Z,72.85
2017-12-23T00:46:12.234Z,73.31
2017-12-23T00:48:41.220Z,74.15
2017-12-23T00:51:10.406Z,73.87
2017-12-23T00:53:38.990Z,71.50
2017-12-23T00:56:07.476Z,69.27
2017-12-23T00:58:36.151Z,71.28
2017-12-23T01:01:04.646Z,70.54
2017-12-23T01:03:33.186Z,69.15
2017-12-23T01:06:01.868Z,72.32
2017-12-23T01:08:30.440Z,73.92
2017-12-23T01:10:59.548Z,74.32
2017-12-23T01:13:28.393Z,73.40
2017-12-23T01:15:56.987Z,74.38
2017-12-23T01:18:26.172Z,73.51
2017-12-23T01:20:54.927Z,70.12
2017-12-23T01:23:23.624Z,72.07
2017-12-23T01:25:52.415Z,70.21
2017-12-23T01:28:21.355Z,71.49
2017-12-23T01:30:50.954Z,73.16
2017-12-23T01:33:19.790Z,72.63
2017-12-23T01:35:50.432Z,74.76
2017-12-23T01:38:19.537Z,73.40
2017-12-23T01:40:49.643Z,72.99
2017-12-23T01:43:19.853Z,73.86
2017-12-23T01:45:50.260Z,71.97
2017-12-23T01:48:30.627Z,74.00
2017-12-23T01:50:59.356Z,74.57
2017-12-23T01:53:27.803Z,74.78
2017-12-23T01:55:57.014Z,74.83
2017-12-23T01:58:27.467Z,75.20
2017-12-23T02:00:57.117Z,75.56
2017-12-23T02:03:26.897Z,76.69
2017-12-23T02:05:56.427Z,78.37
2017-12-23T02:08:27.206Z,78.04
2017-12-23T02:10:57.217Z,78.64
2017-12-23T02:13:26.768Z,76.10
2017-12-23T02:15:57.403Z,72.21
2017-12-23T02:18:27.184Z,73.98
2017-12-23T02:21:02.717Z,73.30
2017-12-23T02:23:31.763Z,71.86
2017-12-23T02:26:01.444Z,72.33
2017-12-23T02:28:30.186Z,70.08
2017-12-23T02:31:00.305Z,70.52
2017-12-23T02:33:29.866Z,70.62
2017-12-23T02:36:00.424Z,69.34
2017-12-23T02:38:30.032Z,69.69
2017-12-23T02:41:00.394Z,72.95
2017-12-23T02:43:29.468Z,72.67
2017-12-23T02:45:59.359Z,76.33
2017-12-23T02:48:27.966Z,76.32
2017-12-23T02:50:58.135Z,74.72
2017-12-23T02:53:28.390Z,75.20
2017-12-23T02:55:57.992Z,75.84
2017-12-23T02:58:26.877Z,76.15
2017-12-23T03:00:56.082Z,74.83
2017-12-23T03:03:25.759Z,75.83
2017-12-23T03:05:55.083Z,75.80
2017-12-23T03:08:24.527Z,75.88
2017-12-23T03:10:54.488Z,75.24
2017-12-23T03:13:25.275Z,76.64
2017-12-23T03:15:55.925Z,78.12
2017-12-23T03:18:25.529Z,77.52
2017-12-23T03:20:55.435Z,76.45
2017-12-23T03:23:25.955Z,78.11
2017-12-23T03:25:55.120Z,78.30
2017-12-23T03:28:24.913Z,79.53
2017-12-23T03:30:54.689Z,79.28
2017-12-23T03:33:24.299Z,80.45
2017-12-23T03:35:53.949Z,77.96
2017-12-23T03:38:23.271Z,76.75
2017-12-23T03:40:53.007Z,79.42
2017-12-23T03:43:22.488Z,79.89
2017-12-23T03:45:52.872Z,82.19
2017-12-23T03:48:23.600Z,83.85
2017-12-23T03:50:53.316Z,82.18
2017-12-23T03:53:23.461Z,80.40
2017-12-23T03:55:53.503Z,77.93
2017-12-23T03:58:22.938Z,78.73
2017-12-23T04:00:52.557Z,77.72
2017-12-23T04:03:22.137Z,79.37
2017-12-23T04:05:51.778Z,80.53
2017-12-23T04:08:21.569Z,81.84
2017-12-23T04:10:51.527Z,78.57
2017-12-23T04:13:20.685Z,80.37
2017-12-23T04:15:49.717Z,80.21
2017-12-23T04:18:18.341Z,79.40
2017-12-23T04:20:48.853Z,79.94
2017-12-23T04:23:19.275Z,79.54
2017-12-23T04:25:50.243Z,83.13
2017-12-23T04:28:19.397Z,80.14
2017-12-23T04:30:48.554Z,82.47
2017-12-23T04:33:18.253Z,80.63
2017-12-23T04:35:48.230Z,79.50
2017-12-23T04:38:17.817Z,81.31
2017-12-23T04:40:47.093Z,81.76
2017-12-23T04:43:16.650Z,79.71
2017-12-23T04:45:46.270Z,80.59
2017-12-23T04:48:15.927Z,79.34
2017-12-23T04:50:46.790Z,80.77
2017-12-23T04:53:17.864Z,78.54
2017-12-23T04:55:48.255Z,77.80
2017-12-23T04:58:17.881Z,79.32
2017-12-23T05:00:49.535Z,78.89
2017-12-23T05:03:20.072Z,77.85
2017-12-23T05:05:49.838Z,77.68
2017-12-23T05:08:19.565Z,79.75
2017-12-23T05:10:48.840Z,77.09
2017-12-23T05:13:19.896Z,76.61
2017-12-23T05:15:50.281Z,81.21
2017-12-23T05:18:19.695Z,77.93
2017-12-23T05:20:52.019Z,77.44
2017-12-23T05:23:22.138Z,77.36
2017-12-23T05:25:51.963Z,78.50
2017-12-23T05:28:21.487Z,74.92
2017-12-23T05:30:50.612Z,79.85
2017-12-23T05:33:20.721Z,80.28
2017-12-23T05:35:50.191Z,79.22
2017-12-23T05:38:19.787Z,81.88
2017-12-23T05:40:49.950Z,76.33
2017-12-23T05:43:19.850Z,79.24
2017-12-23T05:45:49.343Z,79.20
2017-12-23T05:48:18.825Z,77.05
2017-12-23T05:50:49.434Z,77.95
2017-12-23T05:53:20.775Z,76.44
2017-12-23T05:55:50.774Z,75.62
2017-12-23T05:58:19.727Z,78.06
2017-12-23T06:00:50.276Z,79.71
2017-12-23T06:03:19.295Z,81.07
2017-12-23T06:05:49.644Z,83.12
2017-12-23T06:08:18.670Z,80.28
2017-12-23T06:10:49.054Z,80.02
2017-12-23T06:13:19.200Z,80.36
2017-12-23T06:15:48.892Z,80.74
2017-12-23T06:18:18.107Z,76.84
2017-12-23T06:20:48.276Z,76.48
2017-12-23T06:23:19.172Z,78.12
2017-12-23T06:25:50.490Z,76.26
2017-12-23T06:28:19.670Z,80.37
2017-12-23T06:30:49.156Z,78.28
2017-12-23T06:33:19.223Z,77.82
2017-12-23T06:35:49.840Z,77.21
2017-12-23T06:38:19.701Z,79.75
2017-12-23T06:40:49.635Z,81.80
2017-12-23T06:43:19.813Z,81.59
2017-12-23T06:45:49.775Z,81.13
2017-12-23T06:48:19.234Z,80.83
2017-12-23T06:50:48.538Z,80.00
2017-12-23T06:53:18.713Z,79.15
2017-12-23T06:55:49.408Z,81.15
2017-12-23T06:58:18.870Z,79.37
2017-12-23T07:00:48.120Z,80.85
2017-12-23T07:03:19.176Z,81.68
2017-12-23T07:05:48.037Z,82.76
2017-12-23T07:08:17.612Z,81.64
2017-12-23T07:10:46.886Z,82.04
2017-12-23T07:13:17.197Z,82.61
2017-12-23T07:15:47.367Z,79.87
2017-12-23T07:18:17.134Z,84.43
2017-12-23T07:20:46.508Z,82.03
2017-12-23T07:23:16.087Z,80.54
2017-12-23T07:25:45.877Z,81.98
2017-12-23T07:28:14.984Z,77.46
2017-12-23T07:30:44.901Z,81.04
2017-12-23T07:33:14.079Z,81.33
2017-12-23T07:35:44.168Z,82.98
2017-12-23T07:38:14.067Z,80.13
2017-12-23T07:40:42.710Z,79.92
2017-12-23T07:43:11.268Z,83.52
2017-12-23T07:45:39.977Z,84.15
2017-12-23T07:48:09.093Z,81.04
2017-12-23T07:50:37.484Z,83.00
2017-12-23T07:53:05.850Z,80.08
2017-12-23T07:55:34.218Z,81.42
2017-12-23T07:58:02.587Z,83.22
2017-12-23T08:00:30.960Z,83.44
2017-12-23T08:02:59.531Z,83.63
2017-12-23T08:05:28.337Z,84.93
2017-12-23T08:07:56.707Z,83.57
2017-12-23T08:10:25.590Z,83.70
2017-12-23T08:12:54.679Z,82.57
2017-12-23T08:15:23.992Z,83.45
2017-12-23T08:17:52.689Z,84.91
2017-12-23T08:20:21.508Z,81.17
2017-12-23T08:22:50.199Z,81.11
2017-12-23T08:25:19.706Z,82.52
2017-12-23T08:27:49.182Z,83.98
2017-12-23T08:30:19.177Z,82.99
2017-12-23T08:32:47.830Z,82.82
2017-12-23T08:35:18.872Z,84.55
2017-12-23T08:37:47.760Z,84.58
2017-12-23T08:40:17.167Z,84.47
2017-12-23T08:42:46.140Z,81.50
2017-12-23T08:45:16.447Z,83.56
2017-12-23T08:47:46.379Z,82.40
2017-12-23T08:50:16.322Z,82.99
2017-12-23T08:52:46.983Z,85.07
2017-12-23T08:55:17.885Z,84.25
2017-12-23T08:57:47.614Z,83.26
2017-12-23T09:00:18.940Z,81.21
2017-12-23T09:02:48.015Z,80.55
2017-12-23T09:05:18.057Z,81.00
2017-12-23T09:07:47.276Z,80.19
2017-12-23T09:10:18.275Z,82.57
2017-12-23T09:12:48.586Z,82.48
2017-12-23T09:15:18.452Z,83.50
2017-12-23T09:17:47.487Z,82.21
2017-12-23T09:20:17.016Z,82.38
2017-12-23T09:22:47.454Z,82.40
2017-12-23T09:25:16.750Z,82.60
2017-12-23T09:27:45.770Z,81.53
2017-12-23T09:30:16.471Z,83.78
2017-12-23T09:32:45.743Z,82.55
2017-12-23T09:35:15.796Z,80.93
2017-12-23T09:37:46.151Z,82.63
2017-12-23T09:40:16.377Z,80.97
2017-12-23T09:42:46.041Z,83.10
2017-12-23T09:45:16.087Z,81.68
2017-12-23T09:47:45.792Z,82.33
2017-12-23T09:50:17.435Z,83.36
2017-12-23T09:52:48.015Z,82.64
2017-12-23T09:55:18.136Z,82.01
2017-12-23T09:57:47.708Z,85.47
2017-12-23T10:00:17.570Z,82.20
2017-12-23T10:02:47.703Z,82.06
2017-12-23T10:05:17.215Z,83.49
2017-12-23T10:07:46.141Z,82.03
2017-12-23T10:10:15.155Z,85.36
2017-12-23T10:12:44.232Z,80.85
2017-12-23T10:15:15.272Z,81.71
2017-12-23T10:17:45.609Z,82.90
2017-12-23T10:20:15.208Z,82.49
2017-12-23T10:22:46.252Z,81.31
2017-12-23T10:25:16.358Z,84.15
2017-12-23T10:27:46.204Z,83.12
2017-12-23T10:30:16.911Z,82.26
2017-12-23T10:32:47.769Z,83.45
2017-12-23T10:35:17.958Z,82.54
2017-12-23T10:37:47.239Z,84.32
2017-12-23T10:40:16.414Z,84.21
2017-12-23T10:42:46.341Z,84.31
2017-12-23T10:45:17.002Z,83.30
2017-12-23T10:47:47.268Z,82.53
2017-12-23T10:50:16.544Z,82.73
2017-12-23T10:52:51.018Z,82.55
2017-12-23T10:55:20.856Z,82.31
2017-12-23T10:57:49.786Z,82.26
2017-12-23T11:00:18.577Z,83.32
2017-12-23T11:02:48.145Z,83.26
2017-12-23T11:05:17.756Z,81.17
2017-12-23T11:07:47.256Z,81.12
2017-12-23T11:10:16.831Z,80.35
2017-12-23T11:12:46.537Z,82.12
2017-12-23T11:15:17.364Z,78.97
2017-12-23T11:17:46.083Z,80.76
2017-12-23T11:20:16.058Z,82.17
2017-12-23T11:22:47.023Z,82.10
2017-12-23T11:25:16.453Z,84.23
2017-12-23T11:27:46.457Z,81.78
2017-12-23T11:30:17.556Z,84.36
2017-12-23T11:32:47.198Z,82.52
2017-12-23T11:35:16.421Z,83.85
2017-12-23T11:37:45.566Z,82.91
2017-12-23T11:40:14.943Z,81.64
2017-12-23T11:42:45.847Z,82.24
2017-12-23T11:45:16.783Z,80.40
2017-12-23T11:47:46.251Z,82.80
2017-12-23T11:50:16.166Z,80.97
2017-12-23T11:52:45.719Z,84.20
2017-12-23T11:55:15.936Z,80.75
2017-12-23T11:57:46.582Z,81.19
2017-12-23T12:00:17.004Z,83.26
2017-12-23T12:02:46.774Z,83.19
2017-12-23T12:05:16.385Z,83.42
2017-12-23T12:07:47.625Z,81.87
2017-12-23T12:10:16.993Z,83.48
2017-12-23T12:12:45.980Z,82.07
2017-12-23T12:15:15.992Z,81.63
2017-12-23T12:17:45.765Z,81.50
2017-12-23T12:20:15.466Z,82.49
2017-12-23T12:22:45.309Z,81.06
2017-12-23T12:25:14.416Z,86.01
2017-12-23T12:27:44.586Z,82.54
2017-12-23T12:30:14.041Z,82.99
2017-12-23T12:32:43.438Z,82.64
2017-12-23T12:35:12.203Z,80.15
2017-12-23T12:37:40.932Z,82.14
2017-12-23T12:40:09.397Z,79.84
2017-12-23T12:42:37.754Z,81.29
2017-12-23T12:45:06.104Z,80.76
2017-12-23T12:47:34.520Z,79.40
2017-12-23T12:50:02.907Z,81.16
2017-12-23T12:52:31.272Z,81.82
2017-12-23T12:54:59.944Z,79.79
2017-12-23T12:57:29.068Z,81.09
2017-12-23T12:59:58.444Z,81.46
2017-12-23T13:02:27.068Z,82.44
2017-12-23T13:04:55.652Z,80.69
2017-12-23T13:07:24.614Z,80.60
2017-12-23T13:09:54.018Z,81.24
2017-12-23T13:12:23.033Z,82.76
2017-12-23T13:14:51.723Z,82.22
2017-12-23T13:17:21.630Z,82.24
2017-12-23T13:19:50.705Z,80.68
2017-12-23T13:22:19.683Z,79.71
2017-12-23T13:24:50.027Z,80.87
2017-12-23T17:25:01.344Z,81.22
2017-12-23T17:27:29.710Z,84.99
2017-12-23T17:30:09.782Z,83.90
2017-12-23T17:32:38.162Z,83.98
2017-12-23T17:35:06.573Z,84.61
2017-12-23T17:37:34.982Z,84.05
2017-12-23T17:40:03.364Z,84.67
2017-12-23T17:42:31.748Z,86.06
2017-12-23T17:45:00.100Z,82.08
2017-12-23T17:47:28.500Z,86.86
2017-12-23T17:49:56.840Z,87.32
2017-12-23T17:52:25.209Z,85.02
2017-12-23T17:54:53.594Z,84.82
2017-12-23T17:57:22.082Z,87.12
2017-12-23T17:59:50.524Z,87.14
2017-12-23T18:02:18.892Z,86.20
2017-12-23T18:04:47.324Z,86.30
2017-12-23T18:07:15.750Z,87.57
2017-12-23T18:09:44.074Z,86.47
2017-12-23T18:12:12.495Z,87.54
2017-12-23T18:14:40.835Z,90.25
2017-12-23T18:17:09.313Z,87.14
2017-12-23T18:19:37.743Z,85.78
2017-12-23T18:22:07.952Z,87.27
2017-12-23T18:24:36.450Z,87.71
2017-12-23T18:27:04.840Z,87.05
2017-12-23T18:29:33.242Z,85.54
2017-12-23T18:32:01.635Z,85.27
2017-12-23T18:34:30.016Z,87.60
2017-12-23T18:36:58.375Z,84.68
2017-12-23T18:39:26.778Z,84.64
2017-12-23T18:41:55.220Z,84.82
2017-12-23T18:44:23.738Z,85.48
2017-12-23T18:46:52.245Z,85.31
2017-12-23T18:49:20.652Z,85.46
2017-12-23T18:51:49.168Z,86.56
2017-12-23T18:54:17.556Z,86.90
2017-12-23T18:56:45.925Z,85.56
2017-12-23T18:59:14.334Z,87.81
2017-12-23T19:01:42.806Z,87.55
2017-12-23T19:04:11.189Z,85.94
2017-12-23T19:06:39.543Z,87.32
2017-12-23T19:09:08.888Z,89.76
2017-12-23T19:11:37.270Z,87.13
2017-12-23T19:14:05.710Z,86.22
2017-12-23T19:16:45.772Z,85.39
2017-12-23T19:19:14.165Z,88.35
2017-12-23T19:21:42.660Z,87.74
2017-12-23T19:24:11.048Z,85.22
2017-12-23T19:26:40.088Z,87.15
2017-12-23T19:29:08.605Z,86.22
2017-12-23T19:31:37.171Z,84.92
2017-12-23T19:34:05.619Z,86.22
2017-12-23T19:36:34.064Z,86.75
2017-12-23T19:39:02.772Z,86.71
2017-12-23T19:41:31.201Z,87.45
2017-12-23T19:43:59.814Z,84.70
2017-12-23T19:46:28.186Z,85.61
2017-12-23T19:48:56.583Z,87.93
2017-12-23T19:51:25.090Z,85.39
2017-12-23T19:53:53.445Z,85.20
2017-12-23T19:56:21.884Z,86.07
2017-12-23T19:58:50.258Z,87.68
2017-12-23T20:01:18.711Z,87.48
2017-12-23T20:03:47.300Z,82.59
2017-12-23T20:06:15.677Z,85.17
2017-12-23T20:08:44.262Z,85.11
2017-12-23T20:11:12.797Z,83.72
2017-12-23T20:13:41.367Z,84.89
2017-12-23T20:16:09.813Z,85.89
2017-12-23T20:18:38.313Z,82.78
2017-12-23T20:21:06.821Z,86.08
2017-12-23T20:23:35.258Z,84.99
2017-12-23T20:26:03.696Z,86.81
2017-12-23T20:28:32.083Z,83.92
2017-12-23T20:31:00.644Z,83.18
2017-12-23T20:33:29.062Z,83.77
2017-12-23T20:35:57.474Z,84.22
2017-12-23T20:38:25.914Z,84.15
2017-12-23T20:40:54.324Z,83.67
2017-12-23T20:43:22.718Z,84.30
2017-12-23T20:45:51.219Z,84.42
2017-12-23T20:48:19.663Z,84.97
2017-12-23T20:50:48.104Z,83.22
2017-12-23T20:53:16.469Z,84.66
2017-12-23T20:55:44.894Z,82.47
2017-12-23T20:58:13.275Z,83.31
2017-12-23T21:00:41.620Z,83.90
2017-12-23T21:03:10.089Z,83.91
2017-12-23T21:05:38.605Z,82.86
2017-12-23T21:08:07.016Z,82.04
2017-12-23T21:10:35.415Z,82.28
2017-12-23T21:13:03.796Z,81.96
2017-12-23T21:15:32.169Z,81.77
2017-12-23T21:18:00.576Z,80.36
2017-12-23T21:20:28.977Z,81.33
2017-12-23T21:22:57.338Z,83.75
2017-12-23T21:25:25.861Z,83.61
2017-12-23T21:27:54.284Z,82.98
2017-12-23T21:30:22.626Z,83.38
2017-12-23T21:32:51.061Z,82.20
2017-12-23T21:35:19.437Z,81.36
2017-12-23T21:37:47.858Z,82.04
2017-12-23T21:40:16.285Z,84.44
2017-12-23T21:42:44.646Z,83.33
2017-12-23T21:45:13.097Z,81.86
2017-12-23T21:47:41.520Z,81.67
2017-12-23T21:50:09.903Z,84.59
2017-12-23T21:52:38.301Z,82.66
2017-12-23T21:55:06.701Z,80.65
2017-12-23T21:57:35.158Z,82.88
2017-12-23T22:00:03.546Z,81.79
2017-12-23T22:02:32.012Z,86.08
2017-12-23T22:05:00.389Z,83.73
2017-12-23T22:07:28.769Z,83.29
2017-12-23T22:09:57.177Z,81.85
2017-12-23T22:12:25.606Z,81.38
2017-12-23T22:14:54.026Z,80.02
2017-12-23T22:17:22.429Z,81.54
2017-12-23T22:19:50.785Z,82.66
2017-12-23T22:22:19.165Z,81.52
2017-12-23T22:24:47.621Z,83.11
2017-12-23T22:27:15.962Z,80.02
2017-12-23T22:29:44.342Z,83.72
2017-12-23T22:32:12.754Z,81.98
2017-12-23T22:34:41.810Z,81.99
2017-12-23T22:37:10.260Z,80.76
2017-12-23T22:39:38.716Z,83.28
2017-12-23T22:42:07.232Z,84.47
2017-12-23T22:44:35.608Z,83.69
2017-12-23T22:47:04.010Z,80.83
2017-12-23T22:49:32.632Z,80.42
2017-12-23T22:52:01.000Z,83.17
2017-12-23T22:54:29.391Z,82.38
2017-12-23T22:56:57.759Z,84.37
2017-12-23T22:59:26.149Z,82.49
2017-12-23T23:01:54.530Z,82.51
2017-12-23T23:04:22.947Z,83.28
2017-12-23T23:06:51.358Z,82.54
2017-12-23T23:09:19.764Z,82.21
2017-12-23T23:11:48.125Z,82.09
2017-12-23T23:14:16.498Z,80.18
2017-12-23T23:16:44.892Z,80.81
2017-12-23T23:19:13.249Z,84.82
2017-12-23T23:21:41.667Z,81.09
2017-12-23T23:24:10.032Z,81.53
2017-12-23T23:26:38.396Z,81.55
2017-12-23T23:29:06.793Z,79.83
2017-12-23T23:31:35.179Z,80.26
2017-12-23T23:34:03.596Z,80.87
2017-12-23T23:36:32.004Z,80.92
2017-12-23T23:39:00.434Z,80.38
2017-12-23T23:41:28.870Z,80.98
2017-12-23T23:43:57.286Z,80.26
2017-12-23T23:46:25.674Z,81.36
2017-12-23T23:48:54.084Z,80.38
2017-12-23T23:51:22.474Z,82.21
2017-12-23T23:53:50.938Z,81.52
2017-12-23T23:56:19.299Z,82.08
2017-12-23T23:58:47.666Z,80.92
